Time;durP1;ratioP1;P1;durP2;ratioP2;P2;SDS_P1;SDS_P2;PMS_P1;PMS_P2;Temp;Humidity;BMP_temperature;BMP_pressure;BME280_temperature;BME280_humidity;BME280_pressure;Samples;Min_cycle;Max_cycle;Signal;HPM_P1;HPM_P2
2022/01/13 00:01:14;;;;;;;35.07;27.10;;;3.50;81.00;;;;;;10947402;32;20037;-71
2022/01/13 00:07:16;;;;;;;41.17;27.95;;;3.50;81.90;;;;;;10947065;32;20012;-72
2022/01/13 00:13:25;;;;;;;35.88;27.02;;;3.50;82.30;;;;;;10945886;32;20027;-74
2022/01/13 00:25:45;;;;;;;26.23;19.48;;;3.20;82.00;;;;;;10946591;32;20192;-74
2022/01/13 00:31:48;;;;;;;28.58;22.27;;;3.20;82.60;;;;;;10946434;32;20406;-73
2022/01/13 00:38:03;;;;;;;31.35;22.17;;;3.40;82.80;;;;;;10941958;32;20371;-74
2022/01/13 00:44:07;;;;;;;28.92;19.45;;;3.50;82.90;;;;;;10944787;32;20058;-74
2022/01/13 00:50:10;;;;;;;29.80;21.77;;;3.70;83.20;;;;;;10945857;32;20019;-72
2022/01/13 00:56:13;;;;;;;28.05;17.62;;;3.80;83.30;;;;;;10945581;32;20022;-74
2022/01/13 01:02:15;;;;;;;22.60;18.27;;;3.90;83.20;;;;;;10943546;32;20042;-74
2022/01/13 01:08:18;;;;;;;26.10;19.27;;;4.00;82.80;;;;;;10944983;32;20088;-73
2022/01/13 01:14:20;;;;;;;29.35;19.12;;;4.10;82.70;;;;;;10944931;32;20267;-74
2022/01/13 01:20:29;;;;;;;25.62;17.52;;;4.20;82.60;;;;;;10943740;32;20034;-74
2022/01/13 01:26:41;;;;;;;22.00;16.05;;;4.20;81.90;;;;;;10944266;32;20272;-75
2022/01/13 01:32:44;;;;;;;28.20;20.25;;;4.20;81.40;;;;;;10939940;32;20059;-72
2022/01/13 01:38:51;;;;;;;29.85;20.98;;;4.20;81.10;;;;;;10941091;32;20023;-73
2022/01/13 01:44:57;;;;;;;27.42;19.60;;;4.10;80.70;;;;;;10964276;27;20433;-74
2022/01/13 01:50:59;;;;;;;27.10;17.58;;;4.20;80.50;;;;;;10981019;32;20326;-74
2022/01/13 01:57:02;;;;;;;24.08;17.10;;;4.30;80.00;;;;;;10967643;32;20014;-74
2022/01/13 02:03:05;;;;;;;22.55;14.87;;;4.30;79.60;;;;;;10980722;32;20046;-74
2022/01/13 02:09:09;;;;;;;28.23;17.70;;;4.20;79.20;;;;;;10980706;32;20014;-73
2022/01/13 02:15:28;;;;;;;22.23;14.32;;;4.00;79.60;;;;;;10980085;32;20278;-72
2022/01/13 02:21:30;;;;;;;22.30;14.27;;;4.10;79.40;;;;;;10979793;32;20351;-74
2022/01/13 02:27:33;;;;;;;29.50;18.70;;;4.30;79.30;;;;;;10980002;32;20334;-72
2022/01/13 02:33:36;;;;;;;17.87;14.35;;;4.50;79.70;;;;;;10979871;32;20057;-74
2022/01/13 02:39:38;;;;;;;25.00;17.73;;;4.60;80.00;;;;;;10979681;32;20019;-72
2022/01/13 02:45:52;;;;;;;23.48;16.08;;;4.70;80.10;;;;;;10979662;32;20027;-72
2022/01/13 02:51:54;;;;;;;21.33;16.58;;;4.60;79.40;;;;;;10966138;32;20026;-72
2022/01/13 02:57:57;;;;;;;18.27;13.45;;;4.70;79.70;;;;;;10966002;32;20403;-72
2022/01/13 03:04:04;;;;;;;24.23;15.00;;;4.60;79.10;;;;;;10979302;32;20053;-74
2022/01/13 03:10:08;;;;;;;18.48;13.73;;;4.40;78.60;;;;;;10979178;32;20049;-74
2022/01/13 03:16:12;;;;;;;23.23;14.05;;;4.30;78.60;;;;;;10965833;32;20019;-74
2022/01/13 03:22:15;;;;;;;22.62;16.20;;;4.40;78.20;;;;;;10978972;32;20057;-74
2022/01/13 03:28:28;;;;;;;19.73;14.18;;;4.60;78.40;;;;;;10983882;32;20049;-74
2022/01/13 03:34:30;;;;;;;19.15;15.27;;;4.70;78.90;;;;;;10986174;32;20065;-72
2022/01/13 03:40:33;;;;;;;19.23;14.00;;;4.70;78.70;;;;;;10985242;32;20022;-72
2022/01/13 03:46:37;;;;;;;21.70;16.20;;;4.60;78.50;;;;;;10985377;32;20034;-72
2022/01/13 03:53:01;;;;;;;16.58;11.68;;;4.60;79.10;;;;;;10985515;32;20387;-74
2022/01/13 03:59:29;;;;;;;21.30;13.15;;;4.50;78.80;;;;;;10980891;32;20031;-74
2022/01/13 04:05:32;;;;;;;19.60;13.48;;;4.30;78.50;;;;;;10981579;32;20030;-72
2022/01/13 04:11:34;;;;;;;22.05;12.50;;;4.10;78.40;;;;;;10984492;32;20382;-72
2022/01/13 04:17:38;;;;;;;21.33;12.85;;;4.10;78.30;;;;;;10980643;32;20022;-70
2022/01/13 04:23:40;;;;;;;17.83;12.25;;;4.10;78.90;;;;;;10984078;32;20034;-70
2022/01/13 04:29:45;;;;;;;15.90;11.85;;;4.10;78.50;;;;;;10980245;32;20045;-72
2022/01/13 04:35:47;;;;;;;17.83;11.60;;;3.80;78.30;;;;;;10969993;32;20022;-72
2022/01/13 04:41:52;;;;;;;13.73;9.80;;;3.50;78.70;;;;;;10983511;32;20010;-72
2022/01/13 04:47:56;;;;;;;18.42;12.77;;;3.50;78.80;;;;;;10983111;32;20422;-72
2022/01/13 04:53:59;;;;;;;19.65;13.45;;;3.50;78.70;;;;;;10982841;32;20022;-70
2022/01/13 05:00:07;;;;;;;15.95;10.93;;;3.60;78.30;;;;;;10978558;32;20023;-72
2022/01/13 05:06:10;;;;;;;21.87;12.82;;;3.70;77.90;;;;;;10982513;32;20022;-71
2022/01/13 05:12:12;;;;;;;17.77;10.90;;;3.50;77.60;;;;;;10982423;32;20019;-72
2022/01/13 05:18:25;;;;;;;22.05;14.13;;;3.40;77.80;;;;;;10982238;32;20018;-72
2022/01/13 05:24:28;;;;;;;18.83;13.43;;;3.60;78.00;;;;;;10965408;32;20341;-72
2022/01/13 05:30:31;;;;;;;17.83;12.75;;;3.70;77.80;;;;;;10981578;32;20026;-72
2022/01/13 05:36:53;;;;;;;19.45;12.27;;;3.70;77.20;;;;;;10970318;32;20362;-73
2022/01/13 05:42:56;;;;;;;18.52;13.32;;;3.70;77.10;;;;;;10981135;32;20026;-74
2022/01/13 05:48:58;;;;;;;18.33;13.73;;;3.70;76.60;;;;;;10978485;32;20027;-73
2022/01/13 05:55:03;;;;;;;18.23;10.82;;;3.50;77.20;;;;;;10979760;32;20037;-72
2022/01/13 06:01:05;;;;;;;17.55;11.38;;;3.70;76.90;;;;;;10980398;32;20061;-72
2022/01/13 06:07:26;;;;;;;16.40;11.95;;;3.70;76.70;;;;;;10981458;32;20061;-72
2022/01/13 06:13:28;;;;;;;29.65;18.75;;;3.80;76.50;;;;;;10966807;32;20452;-72
2022/01/13 06:19:30;;;;;;;18.48;13.25;;;3.90;76.40;;;;;;10980105;32;20343;-72
2022/01/13 06:25:39;;;;;;;22.40;14.93;;;3.90;76.00;;;;;;10979839;32;20053;-72
2022/01/13 06:31:42;;;;;;;27.58;18.02;;;3.70;75.90;;;;;;10966492;32;20069;-72
2022/01/13 06:37:46;;;;;;;20.48;12.68;;;3.70;75.80;;;;;;10942063;32;20390;-72
2022/01/13 06:43:48;;;;;;;19.40;13.95;;;3.80;75.70;;;;;;10941790;32;20026;-72
2022/01/13 06:49:51;;;;;;;17.67;13.00;;;3.70;75.60;;;;;;10937028;32;20327;-72
2022/01/13 06:55:53;;;;;;;23.20;15.80;;;3.90;76.30;;;;;;10941719;32;20015;-72
2022/01/13 07:02:00;;;;;;;25.37;17.10;;;4.00;75.60;;;;;;10946584;32;20049;-72
2022/01/13 07:08:04;;;;;;;20.70;14.55;;;4.00;75.60;;;;;;10934435;32;20023;-72
2022/01/13 07:14:06;;;;;;;19.85;13.85;;;4.00;75.20;;;;;;10946549;32;20053;-73
2022/01/13 07:20:10;;;;;;;20.60;13.73;;;3.80;75.10;;;;;;10948091;32;20023;-73
2022/01/13 07:26:12;;;;;;;27.62;17.10;;;3.60;75.10;;;;;;10948834;32;20073;-73
2022/01/13 07:32:15;;;;;;;20.42;14.52;;;3.40;76.30;;;;;;10950118;32;20065;-73
2022/01/13 07:38:18;;;;;;;24.73;16.02;;;3.60;76.10;;;;;;10948102;32;20349;-73
2022/01/13 07:44:20;;;;;;;19.95;14.05;;;3.70;75.80;;;;;;10934624;32;20057;-73
2022/01/13 07:50:24;;;;;;;30.55;23.23;;;3.70;75.60;;;;;;10947720;32;20179;-73
2022/01/13 07:56:30;;;;;;;24.70;14.87;;;3.60;76.30;;;;;;10945789;32;20069;-73
2022/01/13 08:02:32;;;;;;;25.70;18.50;;;3.70;76.40;;;;;;10977307;32;20061;-73
2022/01/13 08:08:35;;;;;;;42.90;23.02;;;3.80;76.50;;;;;;10984945;32;20034;-73
2022/01/13 08:14:38;;;;;;;31.58;23.38;;;4.10;76.60;;;;;;10980099;32;20031;-73
2022/01/13 08:20:40;;;;;;;25.20;20.77;;;4.20;76.40;;;;;;10971330;32;20088;-73
2022/01/13 08:26:43;;;;;;;33.20;20.40;;;4.20;76.50;;;;;;10980797;32;20035;-73
2022/01/13 08:32:45;;;;;;;29.00;20.50;;;4.40;77.30;;;;;;10984656;32;20010;-74
2022/01/13 08:38:49;;;;;;;21.73;14.80;;;4.70;76.90;;;;;;10984393;32;20019;-74
2022/01/13 08:44:52;;;;;;;19.95;16.70;;;4.20;76.60;;;;;;10983330;32;20023;-74
2022/01/13 08:50:55;;;;;;;23.80;17.00;;;3.90;78.60;;;;;;10983242;32;20054;-73
2022/01/13 08:56:59;;;;;;;21.62;15.00;;;4.30;79.10;;;;;;10977421;32;20039;-73
2022/01/13 09:03:02;;;;;;;23.35;13.85;;;4.60;78.90;;;;;;10944932;32;20027;-73
2022/01/13 09:09:05;;;;;;;20.08;12.70;;;4.90;78.80;;;;;;10969331;32;20019;-73
2022/01/13 09:15:17;;;;;;;19.60;14.30;;;5.10;78.10;;;;;;10931078;32;20045;-73
2022/01/13 09:21:19;;;;;;;19.50;12.13;;;5.20;78.80;;;;;;10943992;32;20046;-72
2022/01/13 09:27:22;;;;;;;18.20;13.07;;;5.30;78.70;;;;;;10943258;32;20035;-72
2022/01/13 09:33:25;;;;;;;16.83;11.23;;;5.40;79.30;;;;;;10930290;32;20120;-72
2022/01/13 09:39:30;;;;;;;17.75;12.40;;;5.50;79.80;;;;;;10951391;32;20399;-72
2022/01/13 09:46:16;;;;;;;17.33;12.20;;;5.70;79.60;;;;;;10613272;32;12276063;-72
2022/01/13 09:52:20;;;;;;;16.20;11.15;;;5.80;79.70;;;;;;10958382;32;20052;-72
2022/01/13 09:58:23;;;;;;;20.33;12.65;;;5.80;79.80;;;;;;10966701;32;20035;-72
2022/01/13 10:04:45;;;;;;;15.25;10.43;;;5.90;79.90;;;;;;10957660;32;20046;-72
2022/01/13 10:10:47;;;;;;;17.45;9.70;;;5.90;80.10;;;;;;10989046;32;20026;-73
2022/01/13 10:17:02;;;;;;;18.15;12.40;;;6.00;80.30;;;;;;11011782;32;20036;-72
2022/01/13 10:23:09;;;;;;;18.60;11.32;;;6.10;80.30;;;;;;11011562;32;20084;-73
2022/01/13 10:29:13;;;;;;;22.42;14.00;;;5.90;80.20;;;;;;10997766;32;20027;-73
2022/01/13 10:35:19;;;;;;;15.32;9.55;;;6.00;80.90;;;;;;11009201;32;20045;-73
2022/01/13 10:42:12;;;;;;;18.30;10.40;;;5.90;80.90;;;;;;10973841;32;20030;-73
2022/01/13 10:48:24;;;;;;;13.45;10.02;;;6.10;81.40;;;;;;10996234;32;20076;-73
2022/01/13 10:54:26;;;;;;;12.23;8.05;;;6.30;81.20;;;;;;10981465;32;20130;-73
2022/01/13 11:00:51;;;;;;;14.45;10.95;;;6.50;81.00;;;;;;10984629;32;20049;-73
2022/01/13 11:07:14;;;;;;;12.80;9.35;;;6.50;81.30;;;;;;10984377;32;20335;-73
2022/01/13 11:13:24;;;;;;;16.35;10.82;;;6.60;81.00;;;;;;10984496;32;20030;-73
2022/01/13 11:19:27;;;;;;;16.10;12.98;;;6.80;81.00;;;;;;10984096;32;20018;-73
2022/01/13 11:25:29;;;;;;;17.50;10.45;;;7.10;80.40;;;;;;10983723;32;20049;-74
2022/01/13 11:31:35;;;;;;;14.93;10.55;;;7.40;80.70;;;;;;10970205;32;20053;-74
2022/01/13 11:37:51;;;;;;;10.93;7.07;;;7.50;80.20;;;;;;10971544;32;20018;-74
2022/01/13 11:44:16;;;;;;;19.35;11.12;;;7.70;80.50;;;;;;10982866;32;20088;-73
2022/01/13 11:51:19;;;;;;;14.65;10.40;;;7.80;79.80;;;;;;10983149;32;20037;-73
2022/01/13 11:57:25;;;;;;;15.23;9.25;;;7.80;80.10;;;;;;10982062;32;20019;-74
2022/01/13 12:03:33;;;;;;;16.23;10.02;;;7.90;80.00;;;;;;10935662;32;20031;-74
2022/01/13 12:09:47;;;;;;;13.60;8.48;;;8.10;79.90;;;;;;10953094;32;20030;-74
2022/01/13 12:15:50;;;;;;;13.80;8.20;;;8.00;79.60;;;;;;10963878;32;20410;-73
2022/01/13 12:22:02;;;;;;;12.85;8.70;;;8.00;79.90;;;;;;10940194;32;20050;-74
2022/01/13 12:28:18;;;;;;;17.08;11.20;;;8.00;80.30;;;;;;10943337;32;20054;-73
2022/01/13 12:34:34;;;;;;;17.08;9.27;;;8.10;79.00;;;;;;10944007;32;20024;-73
2022/01/13 12:41:15;;;;;;;16.23;8.07;;;8.10;79.20;;;;;;10941649;32;20096;-73
2022/01/13 12:47:17;;;;;;;12.50;7.68;;;7.90;78.90;;;;;;10939363;32;20031;-73
2022/01/13 12:53:25;;;;;;;9.98;6.37;;;7.80;79.30;;;;;;10939585;32;20042;-73
2022/01/13 12:59:28;;;;;;;10.55;7.70;;;7.70;79.50;;;;;;10943038;32;20379;-73
2022/01/13 13:05:35;;;;;;;11.75;5.95;;;7.70;79.60;;;;;;10942730;32;20293;-73
2022/01/13 13:11:44;;;;;;;10.90;6.90;;;7.80;79.90;;;;;;10942163;32;20027;-73
2022/01/13 13:17:51;;;;;;;11.40;6.90;;;7.90;80.10;;;;;;10941101;32;20061;-74
2022/01/13 13:23:54;;;;;;;13.20;8.23;;;8.00;79.60;;;;;;10942296;32;20046;-72
2022/01/13 13:29:57;;;;;;;13.98;9.20;;;8.00;78.20;;;;;;10942189;32;20049;-73
2022/01/13 13:36:13;;;;;;;17.20;9.73;;;7.90;77.70;;;;;;10940094;32;20057;-73
2022/01/13 13:42:15;;;;;;;16.37;11.40;;;7.80;77.40;;;;;;10939629;32;20035;-74
2022/01/13 13:48:24;;;;;;;14.80;9.52;;;8.00;77.40;;;;;;10941621;32;20041;-74
2022/01/13 13:54:52;;;;;;;14.15;8.88;;;8.00;76.00;;;;;;10941546;32;20030;-74
2022/01/13 14:01:07;;;;;;;15.55;9.80;;;8.00;77.50;;;;;;10941541;32;20039;-71
2022/01/13 14:07:19;;;;;;;13.68;8.35;;;8.00;78.00;;;;;;10941452;32;20332;-71
2022/01/13 14:13:22;;;;;;;16.12;8.95;;;8.00;77.70;;;;;;10941210;32;20046;-71
2022/01/13 14:19:24;;;;;;;11.30;7.82;;;8.00;77.30;;;;;;10941169;32;20066;-74
2022/01/13 14:25:33;;;;;;;18.75;12.73;;;8.20;78.50;;;;;;10941169;32;20027;-74
2022/01/13 14:31:38;;;;;;;12.57;8.18;;;8.90;76.80;;;;;;10946327;32;20031;-73
2022/01/13 14:38:36;;;;;;;15.13;9.50;;;9.00;76.70;;;;;;10870131;32;20035;-70
2022/01/13 14:44:39;;;;;;;18.92;13.13;;;9.40;77.80;;;;;;10866432;32;20122;-70
2022/01/13 14:50:41;;;;;;;13.82;8.32;;;9.80;77.60;;;;;;10864290;32;20151;-70
2022/01/13 14:56:46;;;;;;;14.13;7.35;;;9.60;78.40;;;;;;10873937;32;20047;-70
2022/01/13 15:02:49;;;;;;;12.73;7.55;;;9.20;79.10;;;;;;10904938;32;20453;-70
2022/01/13 15:09:16;;;;;;;13.45;9.07;;;8.70;80.10;;;;;;10905018;32;20388;-70
2022/01/13 15:15:19;;;;;;;13.43;7.03;;;8.60;80.70;;;;;;10984149;32;20079;-70
2022/01/13 15:21:25;;;;;;;12.90;9.52;;;8.60;81.40;;;;;;10984029;32;20053;-70
2022/01/13 15:27:28;;;;;;;17.12;12.52;;;8.80;81.60;;;;;;10969413;32;20031;-73
2022/01/13 15:33:46;;;;;;;20.37;11.57;;;8.80;81.20;;;;;;10946351;32;20027;-73
2022/01/13 15:39:50;;;;;;;20.90;13.27;;;8.60;81.20;;;;;;10932637;32;20069;-73
2022/01/13 15:45:53;;;;;;;20.37;15.07;;;8.20;81.70;;;;;;10945781;32;20418;-73
2022/01/13 15:51:55;;;;;;;19.37;13.15;;;8.00;81.80;;;;;;10931540;32;20069;-73
2022/01/13 15:57:59;;;;;;;32.15;21.55;;;7.60;82.10;;;;;;10927635;32;20319;-73
2022/01/13 16:04:11;;;;;;;32.28;22.62;;;7.70;82.40;;;;;;10931788;32;20018;-74
2022/01/13 16:10:14;;;;;;;40.60;26.20;;;7.80;82.10;;;;;;10943540;32;20046;-74
2022/01/13 16:16:17;;;;;;;38.00;26.08;;;7.80;81.60;;;;;;10944291;32;20022;-73
2022/01/13 16:22:20;;;;;;;35.00;24.52;;;7.90;81.10;;;;;;10944543;32;20015;-73
2022/01/13 16:28:23;;;;;;;40.08;24.83;;;7.90;80.40;;;;;;10930132;32;20030;-73
2022/01/13 16:34:25;;;;;;;32.60;23.90;;;7.90;80.20;;;;;;10941485;32;20027;-73
2022/01/13 16:40:36;;;;;;;34.47;23.75;;;7.80;79.90;;;;;;10943823;32;20023;-73
2022/01/13 16:46:39;;;;;;;41.58;27.85;;;7.80;79.70;;;;;;10940232;32;20045;-71
2022/01/13 16:52:42;;;;;;;35.20;26.27;;;7.70;79.30;;;;;;10942829;32;20019;-71
2022/01/13 16:58:45;;;;;;;38.97;26.87;;;7.70;79.30;;;;;;10943140;32;20438;-71
2022/01/13 17:04:47;;;;;;;30.55;22.42;;;7.70;79.10;;;;;;10929415;32;20027;-74
2022/01/13 17:10:50;;;;;;;30.08;22.05;;;7.70;79.00;;;;;;10938677;32;20414;-73
2022/01/13 17:16:53;;;;;;;30.77;24.10;;;7.50;79.10;;;;;;10942801;32;20481;-73
2022/01/13 17:22:56;;;;;;;31.08;22.05;;;7.50;78.90;;;;;;10951886;32;20057;-73
2022/01/13 17:28:59;;;;;;;33.38;23.38;;;7.50;78.90;;;;;;10942278;32;20015;-73
2022/01/13 17:35:02;;;;;;;26.52;19.05;;;7.40;78.80;;;;;;10941800;32;20320;-72
2022/01/13 17:41:05;;;;;;;32.75;22.52;;;7.20;78.70;;;;;;10933497;26;20067;-73
2022/01/13 17:47:08;;;;;;;31.20;24.40;;;7.10;78.80;;;;;;10861406;32;20070;-73
2022/01/13 17:53:11;;;;;;;40.65;26.50;;;7.10;79.10;;;;;;10861204;32;20050;-73
2022/01/13 17:59:13;;;;;;;33.90;24.80;;;7.00;78.70;;;;;;10857126;32;20412;-70
2022/01/13 18:05:16;;;;;;;38.55;26.73;;;7.00;78.30;;;;;;10864270;32;20344;-70
2022/01/13 18:11:18;;;;;;;40.12;26.02;;;7.00;78.00;;;;;;10867630;32;20050;-70
2022/01/13 18:17:22;;;;;;;33.17;21.85;;;6.90;78.00;;;;;;10867251;32;20069;-70
2022/01/13 18:23:24;;;;;;;37.38;25.95;;;6.90;77.90;;;;;;10866840;32;20096;-70
2022/01/13 18:29:28;;;;;;;33.05;25.85;;;6.70;77.90;;;;;;10866847;32;20058;-71
2022/01/13 18:35:31;;;;;;;32.35;23.00;;;6.70;78.00;;;;;;10866904;32;20328;-71
2022/01/13 18:41:35;;;;;;;32.92;23.50;;;6.60;78.40;;;;;;10866565;32;20027;-71
2022/01/13 18:47:39;;;;;;;40.97;27.08;;;6.50;78.70;;;;;;10853284;32;20027;-71
2022/01/13 18:53:41;;;;;;;33.65;23.35;;;6.30;78.90;;;;;;10853133;32;20020;-71
2022/01/13 18:59:45;;;;;;;31.92;22.48;;;6.30;78.70;;;;;;10865795;32;20089;-71
2022/01/13 19:05:47;;;;;;;31.52;22.73;;;6.20;79.00;;;;;;10865838;32;20028;-71
2022/01/13 19:11:50;;;;;;;29.77;22.05;;;6.00;79.10;;;;;;10865663;32;20043;-71
2022/01/13 19:17:55;;;;;;;32.42;22.33;;;5.90;79.00;;;;;;10864790;32;20404;-71
2022/01/13 19:23:59;;;;;;;36.95;25.48;;;5.60;79.60;;;;;;10864601;32;20027;-71
2022/01/13 19:30:01;;;;;;;33.67;22.98;;;5.70;79.90;;;;;;10862888;32;20020;-71
2022/01/13 19:36:04;;;;;;;30.92;23.38;;;5.90;79.60;;;;;;10851468;32;20055;-71
2022/01/13 19:42:07;;;;;;;34.72;22.33;;;6.00;79.60;;;;;;10864407;32;20376;-71
2022/01/13 19:48:10;;;;;;;28.23;18.27;;;5.90;79.50;;;;;;10864396;32;20438;-71
2022/01/13 19:54:12;;;;;;;27.73;21.73;;;5.50;79.60;;;;;;10863891;32;20069;-71
2022/01/13 20:00:17;;;;;;;28.10;19.20;;;5.30;80.30;;;;;;10860001;32;20063;-71
2022/01/13 20:06:19;;;;;;;26.12;18.75;;;5.50;80.20;;;;;;10863545;32;20032;-71
2022/01/13 20:12:23;;;;;;;27.75;20.73;;;5.30;80.10;;;;;;10863581;32;20027;-71
2022/01/13 20:18:26;;;;;;;34.53;23.50;;;5.30;80.60;;;;;;10850390;32;20066;-71
2022/01/13 20:24:28;;;;;;;27.50;20.08;;;5.60;80.20;;;;;;10860640;32;20027;-74
2022/01/13 20:30:31;;;;;;;22.87;17.90;;;5.70;79.60;;;;;;10849737;32;20016;-74
2022/01/13 20:36:35;;;;;;;27.67;22.95;;;5.70;79.40;;;;;;10862655;32;20035;-73
2022/01/13 20:42:38;;;;;;;24.65;18.92;;;5.50;79.40;;;;;;10862940;32;20327;-74
2022/01/13 20:48:41;;;;;;;24.63;19.33;;;5.60;79.60;;;;;;10862538;32;20027;-74
2022/01/13 20:54:45;;;;;;;33.00;21.83;;;5.60;79.40;;;;;;10862580;32;20438;-74
2022/01/13 21:00:49;;;;;;;27.45;20.77;;;5.60;79.40;;;;;;10849460;32;20043;-71
2022/01/13 21:06:54;;;;;;;31.75;22.77;;;5.60;79.40;;;;;;10862023;32;20027;-71
2022/01/13 21:12:57;;;;;;;42.35;27.27;;;5.40;79.30;;;;;;10862384;32;20450;-71
2022/01/13 21:18:59;;;;;;;40.70;27.98;;;5.40;79.70;;;;;;10863510;32;20024;-71
2022/01/13 21:25:06;;;;;;;44.90;30.10;;;5.50;79.90;;;;;;10861228;32;20036;-71
2022/01/13 21:31:09;;;;;;;39.90;24.70;;;5.20;79.90;;;;;;10848763;32;20301;-71
2022/01/13 21:37:11;;;;;;;37.03;24.60;;;5.10;79.80;;;;;;10861485;32;20046;-71
2022/01/13 21:43:14;;;;;;;43.28;27.15;;;4.70;80.10;;;;;;10861453;32;20116;-74
2022/01/13 21:49:17;;;;;;;50.63;35.65;;;4.50;80.70;;;;;;10861476;32;20035;-74
2022/01/13 21:55:20;;;;;;;45.55;30.80;;;4.80;81.10;;;;;;10861345;32;20050;-74
2022/01/13 22:01:22;;;;;;;44.45;30.67;;;4.90;80.50;;;;;;10861103;32;20400;-74
2022/01/13 22:07:27;;;;;;;41.55;29.98;;;5.10;80.30;;;;;;10861082;32;20364;-74
2022/01/13 22:13:30;;;;;;;35.83;23.87;;;5.20;80.20;;;;;;10860979;32;20024;-73
2022/01/13 22:19:33;;;;;;;36.67;28.27;;;4.70;80.20;;;;;;10860857;32;20046;-73
2022/01/13 22:25:36;;;;;;;35.15;24.00;;;4.70;80.90;;;;;;10860641;32;20324;-74
2022/01/13 22:31:39;;;;;;;44.63;29.83;;;4.70;80.50;;;;;;10860552;32;20039;-74
2022/01/13 22:37:41;;;;;;;40.88;28.12;;;4.40;80.50;;;;;;10860368;32;20027;-74
2022/01/13 22:43:44;;;;;;;32.95;22.98;;;4.60;80.70;;;;;;10860203;32;20305;-73
2022/01/13 22:49:47;;;;;;;33.08;24.20;;;4.40;80.20;;;;;;10861709;32;20028;-73
2022/01/13 22:55:50;;;;;;;40.28;28.75;;;4.10;81.00;;;;;;10866394;32;20020;-73
2022/01/13 23:01:54;;;;;;;33.35;24.87;;;4.20;81.00;;;;;;10866236;32;20054;-73
2022/01/13 23:07:57;;;;;;;30.62;23.00;;;4.40;80.60;;;;;;10865933;32;20042;-73
2022/01/13 23:14:07;;;;;;;30.65;22.45;;;4.60;80.30;;;;;;10861601;32;20032;-73
2022/01/13 23:26:31;;;;;;;36.33;26.73;;;4.10;80.90;;;;;;10865357;32;20035;-73
2022/01/13 23:32:35;;;;;;;31.58;23.12;;;4.20;80.70;;;;;;10865257;32;20016;-73
2022/01/13 23:38:38;;;;;;;34.70;24.95;;;4.30;80.50;;;;;;10865254;32;20310;-73
2022/01/13 23:44:46;;;;;;;33.35;26.12;;;4.40;80.40;;;;;;10864719;32;20058;-73
2022/01/13 23:50:49;;;;;;;39.17;28.23;;;4.40;80.10;;;;;;10864547;32;20058;-73
2022/01/13 23:56:53;;;;;;;32.17;23.75;;;4.40;80.00;;;;;;10864518;32;20023;-73
